Flight Track Log - Related Links

Times and Time Zones

All times are in EDT time to prevent confusion due to time zone crossing. See the UPS1121 flight status page for this flight to view local times or setup timezone preferences in your user account.

Time Position Orientation Groundspeed Altitude Reporting Facility
EDT Latitude Longitude Course Direction KTS MPH feet Rate Location/Type
Thu 10:04:56 PM 41.9458 -72.7025 152° Southeast 162 186 1,400  Level Boston Center
Thu 10:11:04 PM 41.5820 -72.4410 136° Southeast 398 458 19,100 2,638 Climbing FlightAware ADS-B
Thu 10:11:59 PM 41.4960 -72.3800 152° Southeast 417 480 20,000 540 Climbing FlightAware ADS-B
Thu 10:12:44 PM 41.4050 -72.3620 172° South 422 486 20,000  Level FlightAware ADS-B
Thu 10:13:19 PM 41.3380 -72.3510 173° South 421 484 20,000  Level FlightAware ADS-B
Thu 10:13:54 PM 41.2760 -72.3610 187° South 401 461 20,000  Level FlightAware ADS-B
Thu 10:14:49 PM 41.1890 -72.4310 211° Southwest 397 457 20,000  Level FlightAware ADS-B
Thu 10:15:29 PM 41.1300 -72.4830 214° Southwest 390 449 20,000  Level FlightAware ADS-B
Thu 10:16:09 PM 41.0630 -72.5430 214° Southwest 390 449 20,000  Level FlightAware ADS-B
Thu 10:16:54 PM 40.9950 -72.6020 213° Southwest 389 448 20,000  Level FlightAware ADS-B
Thu 10:17:23 PM 40.9456 -72.6456 214° Southwest 396 456 20,000  Level FlightAware ADS-B
Thu 10:17:53 PM 40.8998 -72.6855 213° Southwest 396 456 20,000  Level FlightAware ADS-B
Thu 10:18:24 PM 40.8514 -72.7279 214° Southwest 395 455 20,000  Level FlightAware ADS-B
Thu 10:18:55 PM 40.8051 -72.7684 214° Southwest 395 455 20,000  Level FlightAware ADS-B
Thu 10:19:26 PM 40.7573 -72.8102 214° Southwest 396 456 20,000  Level FlightAware ADS-B
Thu 10:19:57 PM 40.7104 -72.8512 214° Southwest 396 456 20,000  Level FlightAware ADS-B
Thu 10:20:29 PM 40.6740 -72.8830 214° Southwest 389 448 20,000  Level FlightAware ADS-B
Thu 10:20:32 PM 40.6567 -72.8979 213° Southwest 396 456 20,000  Level FlightAware ADS-B
Thu 10:21:03 PM 40.6090 -72.9392 213° Southwest 396 456 20,000  Level FlightAware ADS-B
Thu 10:21:34 PM 40.5625 -72.9794 213° Southwest 396 456 20,000  Level FlightAware ADS-B
Thu 10:22:06 PM 40.5139 -73.0214 213° Southwest 396 456 20,000  Level FlightAware ADS-B
Thu 10:22:36 PM 40.4670 -73.0618 213° Southwest 396 456 20,000  Level FlightAware ADS-B
Thu 10:23:07 PM 40.4202 -73.1020 213° Southwest 396 456 20,000  Level FlightAware ADS-B
Thu 10:23:47 PM 40.3591 -73.1547 213° Southwest 396 456 20,000  Level FlightAware ADS-B
Thu 10:24:37 PM 40.2824 -73.2203 213° Southwest 397 457 20,000  Level FlightAware ADS-B
Thu 10:25:13 PM 40.2264 -73.2681 213° Southwest 397 457 20,000  Level FlightAware ADS-B
Thu 10:25:45 PM 40.1778 -73.3095 213° Southwest 397 457 20,000  Level FlightAware ADS-B
Thu 10:26:15 PM 40.1314 -73.3491 213° Southwest 397 457 20,000  Level FlightAware ADS-B
Thu 10:26:46 PM 40.0834 -73.3898 213° Southwest 397 457 20,000  Level FlightAware ADS-B
Thu 10:27:13 PM 40.0385 -73.4168 205° Southwest 404 465 20,000  Level FlightAware ADS-B
Thu 10:27:31 PM 40.0046 -73.4241 189° South 412 474 20,000  Level FlightAware ADS-B
Thu 10:27:54 PM 39.9610 -73.4256 182° South 414 476 20,000  Level FlightAware ADS-B
Thu 10:28:05 PM 39.9405 -73.4282 186° South 410 472 20,000  Level FlightAware ADS-B
Thu 10:28:15 PM 39.9217 -73.4337 193° South 406 467 20,000  Level FlightAware ADS-B
Thu 10:28:19 PM 39.9146 -73.4366 197° South 404 465 20,000  Level FlightAware ADS-B
Thu 10:28:30 PM 39.8955 -73.4472 203° Southwest 400 460 20,000  Level FlightAware ADS-B
Thu 10:28:40 PM 39.8795 -73.4600 212° Southwest 396 456 20,000  Level FlightAware ADS-B
Thu 10:28:56 PM 39.8581 -73.4843 221° Southwest 393 452 20,000  Level FlightAware ADS-B
Thu 10:29:12 PM 39.8404 -73.5145 233° Southwest 391 450 20,000  Level FlightAware ADS-B
Thu 10:29:45 PM 39.8081 -73.5786 237° Southwest 391 450 20,000  Level FlightAware ADS-B
Thu 10:30:21 PM 39.7722 -73.6507 237° Southwest 391 450 20,000  Level FlightAware ADS-B
Thu 10:30:52 PM 39.7425 -73.7097 237° Southwest 391 450 20,000  Level FlightAware ADS-B
Thu 10:31:22 PM 39.7126 -73.7689 237° Southwest 391 450 20,000  Level FlightAware ADS-B
Thu 10:31:53 PM 39.6817 -73.8298 237° Southwest 391 450 20,000  Level FlightAware ADS-B
Thu 10:32:30 PM 39.6444 -73.9033 237° Southwest 392 451 20,000  Level FlightAware ADS-B
Thu 10:33:00 PM 39.6141 -73.9630 237° Southwest 390 449 20,000 -1,672 Level FlightAware ADS-B
Thu 10:33:31 PM 39.5853 -74.0198 237° Southwest 367 422 18,300 -4,426 Descending FlightAware ADS-B
Thu 10:34:01 PM 39.5566 -74.0763 237° Southwest 380 437 15,500 -4,909 Descending FlightAware ADS-B
Thu 10:34:15 PM 39.5434 -74.1025 237° Southwest 376 433 14,700 -2,870 Descending FlightAware ADS-B
Thu 10:34:24 PM 39.5357 -74.1215 242° Southwest 372 428 14,400  Descending FlightAware ADS-B
Thu 10:34:54 PM 37.9080 -76.6930 232° Southwest 392 451 14,700 -800 Climbing FlightAware ADS-B
Thu 10:35:09 PM 39.5260 -74.2190 49° Northeast 376 433 13,800 -2,609 Descending FlightAware ADS-B
Thu 10:35:17 PM 39.5261 -74.2391 270° West 373 429 13,700 -500 Descending FlightAware ADS-B
Thu 10:35:21 PM 39.5262 -74.2468 271° West 375 432 13,700  Level FlightAware ADS-B
Thu 10:35:51 PM 39.5277 -74.3150 272° West 368 423 13,700  Level FlightAware ADS-B
Thu 10:36:22 PM 39.5289 -74.3817 271° West 348 400 13,700 -190 Level FlightAware ADS-B
Thu 10:36:54 PM 39.5300 -74.4452 271° West 323 372 13,500 -2,032 Descending FlightAware ADS-B
Thu 10:37:24 PM 39.5310 -74.5021 271° West 320 368 11,600 -3,148 Descending FlightAware ADS-B
Thu 10:37:55 PM 39.5318 -74.5634 271° West 300 345 10,300 -2,250 Descending FlightAware ADS-B
Thu 10:38:12 PM 39.5322 -74.5903 271° West 283 326 9,800 -1,034 Descending FlightAware ADS-B
Thu 10:38:24 PM 39.5320 -74.5970 268° West 276 318 9,800 -947 Level FlightAware ADS-B
Thu 10:38:31 PM 39.5326 -74.6204 272° West 261 300 9,500 -1,909 Descending FlightAware ADS-B
Thu 10:38:46 PM 39.5329 -74.6439 271° West 260 299 9,100 -1,600 Descending FlightAware ADS-B
Thu 10:39:01 PM 39.5332 -74.6674 271° West 258 297 8,700 -1,043 Descending FlightAware ADS-B
Thu 10:39:09 PM 39.5330 -74.6670 123° Southeast 258 297 8,700  Level FlightAware ADS-B
Thu 10:39:16 PM 39.5336 -74.6907 272° West 259 298 8,700  Level FlightAware ADS-B
Thu 10:39:32 PM 39.5338 -74.7147 271° West 261 300 8,700  Level FlightAware ADS-B
Thu 10:39:47 PM 39.5341 -74.7389 271° West 260 299 8,700  Level FlightAware ADS-B
Thu 10:40:02 PM 39.5345 -74.7626 271° West 260 299 8,700  Level FlightAware ADS-B
Thu 10:40:17 PM 39.5349 -74.7864 271° West 262 302 8,700  Level FlightAware ADS-B
Thu 10:40:33 PM 39.5352 -74.8108 271° West 262 302 8,700  Level FlightAware ADS-B
Thu 10:40:34 PM 39.5350 -74.8010 92° East 262 302 8,700  Level FlightAware ADS-B
Thu 10:40:48 PM 39.5354 -74.8346 271° West 264 304 8,700  Level FlightAware ADS-B
Thu 10:41:05 PM 39.5357 -74.8603 271° West 265 305 8,700  Level FlightAware ADS-B
Thu 10:41:21 PM 39.5359 -74.8861 271° West 265 305 8,700 13,333 Level FlightAware ADS-B
Thu 10:41:32 PM 38.5162 -76.1893 225° Southwest 379 436 14,700 -1,200 Climbing FlightAware ADS-B
Thu 10:41:36 PM 39.5362 -74.9100 44° Northeast 259 298 8,400 -20,100 Descending FlightAware ADS-B
Thu 10:41:52 PM 39.5367 -74.9346 272° West 258 297 8,000 -1,500 Descending FlightAware ADS-B
Thu 10:41:56 PM 39.5370 -74.9408 274° West 258 297 7,900 -1,333 Descending FlightAware ADS-B
Thu 10:42:01 PM 39.5377 -74.9472 278° West 258 297 7,800 -1,500 Descending FlightAware ADS-B
Thu 10:42:04 PM 39.5386 -74.9520 284° West 258 297 7,700 -1,714 Descending FlightAware ADS-B
Thu 10:42:08 PM 39.5403 -74.9581 290° West 258 297 7,600 -1,500 Descending FlightAware ADS-B
Thu 10:42:12 PM 39.5424 -74.9636 296° West 259 298 7,500 -1,800 Descending FlightAware ADS-B
Thu 10:42:18 PM 39.5461 -74.9708 304° West 260 299 7,300 -2,000 Descending FlightAware ADS-B
Thu 10:42:21 PM 39.5491 -74.9752 311° West 261 300 7,200 -1,714 Descending FlightAware ADS-B
Thu 10:42:25 PM 39.5521 -74.9788 317° Northwest 261 300 7,100 -1,500 Descending FlightAware ADS-B
Thu 10:42:29 PM 39.5564 -74.9830 323° Northwest 262 302 7,000 41,333 Descending FlightAware ADS-B
Thu 10:42:34 PM 38.6009 -76.1107 223° Southwest 353 406 13,300 -1,500 Climbing FlightAware ADS-B
Thu 10:42:37 PM 39.5638 -74.9895 42° Northeast 262 302 6,800 -76,800 Descending FlightAware ADS-B
Thu 10:42:39 PM 39.5590 -74.9850 144° Southeast 262 302 6,900 -1,600 Climbing FlightAware ADS-B
Thu 10:42:52 PM 39.5798 -75.0025 327° Northwest 261 300 6,400 13,920 Descending FlightAware ADS-B
Thu 10:43:04 PM 38.6407 -76.0735 222° Southwest 350 403 12,700 -1,500 Climbing FlightAware ADS-B
Thu 10:43:08 PM 39.5955 -75.0153 40° Northeast 261 300 6,000 -22,105 Descending FlightAware ADS-B
Thu 10:43:23 PM 39.6110 -75.0282 327° Northwest 259 298 5,700 13,862 Descending FlightAware ADS-B
Thu 10:43:37 PM 38.6838 -76.0333 220° Southwest 349 402 12,700  Climbing FlightAware ADS-B
Thu 10:43:53 PM 39.6467 -75.0359 38° Northeast 268 308 5,700 -20,000 Descending FlightAware ADS-B
Thu 10:43:58 PM 39.6525 -75.0327 23° Northeast 271 312 5,700  Level FlightAware ADS-B
Thu 10:44:01 PM 39.6558 -75.0302 30° Northeast 273 314 5,700  Level FlightAware ADS-B
Thu 10:44:05 PM 39.6588 -75.0275 35° Northeast 276 318 5,700 60,000 Level FlightAware ADS-B
Thu 10:44:08 PM 38.7227 -75.9969 219° Southwest 343 395 12,700  Climbing FlightAware ADS-B
Thu 10:44:09 PM 39.6625 -75.0234 38° Northeast 278 320 5,700 -70,000 Descending FlightAware ADS-B
Thu 10:44:14 PM 39.6675 -75.0165 47° Northeast 281 323 5,700  Level FlightAware ADS-B
Thu 10:44:26 PM 39.6770 -75.0013 51° Northeast 283 326 5,700 16,800 Level FlightAware ADS-B
Thu 10:44:39 PM 38.7634 -75.9590 219° Southwest 349 402 12,700  Climbing FlightAware ADS-B
Thu 10:44:41 PM 39.6897 -74.9807 39° Northeast 283 326 5,700 -24,706 Descending FlightAware ADS-B
Thu 10:44:56 PM 39.7024 -74.9601 51° Northeast 282 325 5,700  Level FlightAware ADS-B
Thu 10:45:12 PM 39.7151 -74.9397 51° Northeast 284 327 5,700  Level FlightAware ADS-B
Thu 10:45:24 PM 39.7180 -74.9360 44° Northeast 284 327 5,700  Level FlightAware ADS-B
Thu 10:45:30 PM 39.7299 -74.9159 52° Northeast 284 327 5,700 24,706 Level FlightAware ADS-B
Thu 10:45:41 PM 38.8443 -75.8831 221° Southwest 359 413 12,700  Climbing FlightAware ADS-B
Thu 10:45:45 PM 39.7423 -74.8959 40° Northeast 283 326 5,700 -22,105 Descending FlightAware ADS-B
Thu 10:46:00 PM 39.7547 -74.8759 51° Northeast 284 327 5,700 15,000 Level FlightAware ADS-B
Thu 10:46:13 PM 38.8869 -75.8432 221° Southwest 361 415 12,700  Climbing FlightAware ADS-B
Thu 10:46:15 PM 39.7672 -74.8561 41° Northeast 284 327 5,700 -23,333 Descending FlightAware ADS-B
Thu 10:46:31 PM 39.7805 -74.8350 51° Northeast 281 323 5,700 15,000 Level FlightAware ADS-B
Thu 10:46:43 PM 38.9274 -75.8055 222° Southwest 356 410 12,700  Climbing FlightAware ADS-B
Thu 10:46:47 PM 39.7939 -74.8138 41° Northeast 281 323 5,700 -70,000 Descending FlightAware ADS-B
Thu 10:46:49 PM 39.7900 -74.8210 235° Southwest 280 322 5,700  Level FlightAware ADS-B
Thu 10:47:03 PM 39.8073 -74.7925 52° Northeast 282 325 5,700  Level FlightAware ADS-B
Thu 10:47:09 PM 39.8121 -74.7852 49° Northeast 282 325 5,700 35,000 Level FlightAware ADS-B
Thu 10:47:15 PM 38.9702 -75.7651 222° Southwest 357 411 12,700 -857 Climbing FlightAware ADS-B
Thu 10:47:16 PM 39.8190 -74.7774 42° Northeast 274 315 5,600 -108,000 Descending FlightAware ADS-B
Thu 10:47:19 PM 39.8229 -74.7742 32° Northeast 270 311 5,500 -1,500 Descending FlightAware ADS-B
Thu 10:47:24 PM 39.8276 -74.7713 25° Northeast 267 307 5,400 -1,333 Descending FlightAware ADS-B
Thu 10:47:28 PM 39.8327 -74.7692 18° North 262 302 5,300 -1,500 Descending FlightAware ADS-B
Thu 10:47:32 PM 39.8380 -74.7681 North 259 298 5,200 -1,333 Descending FlightAware ADS-B
Thu 10:47:37 PM 39.8434 -74.7680 North 254 292 5,100 -1,500 Descending FlightAware ADS-B
Thu 10:47:40 PM 39.8474 -74.7686 353° North 250 288 5,000 -1,500 Descending FlightAware ADS-B
Thu 10:47:45 PM 39.8528 -74.7704 346° North 248 285 4,900 77,000 Descending FlightAware ADS-B
Thu 10:47:46 PM 39.0125 -75.7252 222° Southwest 358 412 12,700 -1,200 Climbing FlightAware ADS-B
Thu 10:47:50 PM 39.8578 -74.7731 41° Northeast 245 282 4,800 -60,000 Descending FlightAware ADS-B
Thu 10:47:54 PM 39.8617 -74.7755 335° Northwest 244 281 4,700 -1,500 Descending FlightAware ADS-B
Thu 10:47:58 PM 39.8659 -74.7784 332° Northwest 243 280 4,600 48,000 Descending FlightAware ADS-B
Thu 10:48:04 PM 39.0354 -75.7037 221° Southwest 359 413 12,700 -1,286 Climbing FlightAware ADS-B
Thu 10:48:12 PM 39.8793 -74.7883 40° Northeast 243 280 4,300  Descending FlightAware ADS-B
Thu 10:48:14 PM 39.0496 -75.6926 220° Southwest 357 411 12,700 63,000 Climbing FlightAware ADS-B
Thu 10:48:20 PM 39.0593 -75.6869 25° Northeast 353 406 12,700 -286 Level FlightAware ADS-B
Thu 10:48:35 PM 39.0820 -75.6782 17° North 334 384 12,600 -27,000 Descending FlightAware ADS-B
Thu 10:48:40 PM 39.8995 -74.8193 39° Northeast 247 284 3,700 -857 Descending FlightAware ADS-B
Thu 10:48:42 PM 39.0922 -75.6763 220° Southwest 327 376 12,500  Climbing FlightAware ADS-B
Thu 10:48:56 PM 39.9073 -74.8414 38° Northeast 243 280 3,700 -1,800 Descending FlightAware ADS-B
Thu 10:49:12 PM 39.1370 -75.6711 220° Southwest 320 368 11,600 13,875 Climbing FlightAware ADS-B
Thu 10:49:28 PM 39.1414 -75.6676 32° Northeast 318 366 11,100 -14,364 Descending FlightAware ADS-B
Thu 10:49:45 PM 39.9295 -74.8990 37° Northeast 206 237 3,700 -15,310 Descending FlightAware ADS-B
Thu 10:49:57 PM 39.9339 -74.9125 293° West 204 235 3,700 30,462 Level FlightAware ADS-B
Thu 10:49:58 PM 39.2042 -75.6628 219° Southwest 313 360 10,300  Climbing FlightAware ADS-B
Thu 10:50:05 PM 39.9340 -74.9216 38° Northeast 200 230 3,700 -39,600 Descending FlightAware ADS-B
Thu 10:50:08 PM 39.9335 -74.9261 262° West 199 229 3,700  Level FlightAware ADS-B
Thu 10:50:14 PM 39.9323 -74.9328 257° West 202 232 3,700 27,000 Level FlightAware ADS-B
Thu 10:50:22 PM 39.2370 -75.6588 219° Southwest 296 341 10,000  Climbing FlightAware ADS-B
Thu 10:50:29 PM 39.9287 -74.9512 38° Northeast 205 236 3,700 -31,500 Descending FlightAware ADS-B
Thu 10:50:34 PM 39.9275 -74.9570 255° West 205 236 3,700 45,750 Level FlightAware ADS-B
Thu 10:50:37 PM 39.2580 -75.6562 219° Southwest 284 327 9,800 30,500 Climbing FlightAware ADS-B
Thu 10:50:46 PM 39.2686 -75.6548 North 278 320 9,800 -28,154 Level FlightAware ADS-B
Thu 10:50:50 PM 39.9232 -74.9762 38° Northeast 200 230 3,700 -857 Descending FlightAware ADS-B
Thu 10:50:53 PM 39.2780 -75.6523 219° Southwest 276 318 9,700 36,000 Climbing FlightAware ADS-B
Thu 10:51:00 PM 39.2859 -75.6490 18° North 274 315 9,700 -45,750 Level FlightAware ADS-B
Thu 10:51:01 PM 39.9204 -74.9876 39° Northeast 192 221 3,600  Descending FlightAware ADS-B
Thu 10:51:06 PM 39.2936 -75.6446 219° Southwest 278 320 9,700 36,600 Climbing FlightAware ADS-B
Thu 10:51:11 PM 39.2986 -75.6411 28° Northeast 283 326 9,700 -36,600 Level FlightAware ADS-B
Thu 10:51:16 PM 39.9158 -75.0037 38° Northeast 176 203 3,600  Descending FlightAware ADS-B
Thu 10:51:26 PM 39.3156 -75.6271 219° Southwest 292 336 9,700 -900 Climbing FlightAware ADS-B
Thu 10:51:36 PM 39.9110 -75.0229 38° Northeast 172 198 3,300  Descending FlightAware ADS-B
Thu 10:51:41 PM 39.3331 -75.6116 218° Southwest 295 339 9,700 -1,059 Climbing FlightAware ADS-B
Thu 10:51:53 PM 39.9076 -75.0398 37° Northeast 170 196 3,000 -632 Descending FlightAware ADS-B
Thu 10:52:00 PM 39.3537 -75.5936 218° Southwest 291 335 9,500 -1,091 Climbing FlightAware ADS-B
Thu 10:52:04 PM 39.9056 -75.0499 37° Northeast 161 185 2,800 -1,600 Descending FlightAware ADS-B
Thu 10:52:15 PM 39.3712 -75.5784 217° Southwest 290 334 9,100 -800 Climbing FlightAware ADS-B
Thu 10:52:19 PM 39.9028 -75.0639 37° Northeast 161 185 2,600 -750 Descending FlightAware ADS-B
Thu 10:52:23 PM 39.3792 -75.5699 217° Southwest 292 336 9,000 41,333 Climbing FlightAware ADS-B
Thu 10:52:28 PM 39.3840 -75.5634 46° Northeast 294 338 8,800 -1,333 Descending FlightAware ADS-B
Thu 10:52:32 PM 39.3877 -75.5576 50° Northeast 295 339 8,800 -64,000 Level FlightAware ADS-B
Thu 10:52:34 PM 39.8999 -75.0782 36° Northeast 152 175 2,400 -1,500 Descending FlightAware ADS-B
Thu 10:52:36 PM 39.3904 -75.5524 216° Southwest 295 339 8,700 46,500 Climbing FlightAware ADS-B
Thu 10:52:42 PM 39.3942 -75.5437 61° Northeast 296 341 8,600 -1,800 Descending FlightAware ADS-B
Thu 10:52:46 PM 39.3969 -75.5357 66° East 297 342 8,400 -48,750 Descending FlightAware ADS-B
Thu 10:52:50 PM 39.8973 -75.0914 34° Northeast 142 163 2,100 -34,909 Descending FlightAware ADS-B
Thu 10:52:57 PM 39.8962 -75.0969 255° West 137 158 2,000 30,000 Descending FlightAware ADS-B
Thu 10:53:02 PM 39.4048 -75.5099 213° Southwest 294 338 8,100 -375 Climbing FlightAware ADS-B
Thu 10:53:13 PM 39.8937 -75.1098 32° Northeast 141 162 1,900 -1,200 Descending FlightAware ADS-B
Thu 10:53:17 PM 39.4123 -75.4848 211° Southwest 293 337 7,800 -545 Climbing FlightAware ADS-B
Thu 10:53:24 PM 39.8930 -75.1130 31° Northeast 140 161 1,800 -33,818 Descending FlightAware ADS-B
Thu 10:53:28 PM 39.8913 -75.1222 256° West 137 158 1,600 37,333 Descending FlightAware ADS-B
Thu 10:53:33 PM 39.4200 -75.4589 209° Southwest 289 333 7,400 -400 Climbing FlightAware ADS-B
Thu 10:53:43 PM 39.8889 -75.1336 28° Northeast 129 148 1,500 -1,200 Descending FlightAware ADS-B
Thu 10:53:48 PM 39.4271 -75.4346 207° Southwest 286 329 7,100  Climbing FlightAware ADS-B
Thu 10:53:49 PM 39.8890 -75.1330 27° Northeast 128 147 1,500 -38,667 Descending FlightAware ADS-B
Thu 10:53:57 PM 39.8869 -75.1437 256° West 120 138 1,300 19,875 Descending FlightAware ADS-B
Thu 10:54:05 PM 39.4351 -75.4076 204° Southwest 282 325 6,800 -750 Climbing FlightAware ADS-B
Thu 10:54:13 PM 39.8849 -75.1545 23° Northeast 120 138 1,100 -375 Descending FlightAware ADS-B
Thu 10:54:21 PM 39.4427 -75.3820 202° Southwest 284 327 6,700 -750 Climbing FlightAware ADS-B
Thu 10:54:29 PM 39.8827 -75.1655 21° North 119 137 900  Descending FlightAware ADS-B
Thu 10:54:36 PM 39.4499 -75.3574 199° South 282 325 6,700 -400 Climbing FlightAware ADS-B
Thu 10:54:44 PM 39.8806 -75.1759 18° North 118 136 800  Descending FlightAware ADS-B
Thu 10:54:52 PM 39.4573 -75.3328 196° South 283 326 6,700 29,500 Climbing FlightAware ADS-B
Thu 10:54:56 PM 39.4594 -75.3264 67° East 284 327 6,700 -45,750 Level FlightAware ADS-B
Thu 10:55:00 PM 39.8784 -75.1869 14° North 119 137 600  Descending FlightAware ADS-B
Thu 10:55:03 PM 39.4642 -75.3149 193° South 282 325 6,700 40,667 Climbing FlightAware ADS-B
Thu 10:55:09 PM 39.4684 -75.3069 56° Northeast 280 322 6,700  Level FlightAware ADS-B
Thu 10:55:13 PM 39.4715 -75.3019 51° Northeast 280 322 6,700 -63,000 Level FlightAware ADS-B
Thu 10:55:15 PM 39.8764 -75.1971 11° North 118 136 400  Descending FlightAware ADS-B
Thu 10:55:21 PM 39.4788 -75.2919 190° South 279 321 6,700 -667 Climbing FlightAware ADS-B
Thu 10:55:33 PM 39.8739 -75.2096 North 118 136 200  Descending FlightAware ADS-B
Thu 10:55:36 PM 39.4933 -75.2741 187° South 279 321 6,700  Climbing FlightAware ADS-B
Thu 10:55:39 PM 39.8740 -75.2090 North 117 135 200  Descending FlightAware ADS-B
Thu 10:55:52 PM 39.5085 -75.2557 186° South 279 321 6,700 13,448 Climbing FlightAware ADS-B
Thu 10:56:08 PM 39.5231 -75.2378 43° Northeast 280 322 6,700  Level FlightAware ADS-B
Thu 10:56:23 PM 39.5375 -75.2200 44° Northeast 280 322 6,700 -563 Level FlightAware ADS-B
Thu 10:56:40 PM 39.5533 -75.2003 44° Northeast 277 319 6,400 -1,313 Descending FlightAware ADS-B
Thu 10:56:55 PM 39.5679 -75.1824 43° Northeast 278 320 6,000 -1,548 Descending FlightAware ADS-B
Thu 10:57:11 PM 39.5824 -75.1645 166° South 279 321 5,600 -1,548 Descending FlightAware ADS-B
Thu 10:57:26 PM 39.5969 -75.1467 43° Northeast 278 320 5,200 -1,355 Descending FlightAware ADS-B
Thu 10:57:42 PM 39.6113 -75.1293 159° South 277 319 4,900 -938 Descending FlightAware ADS-B
Thu 10:57:58 PM 39.6268 -75.1108 43° Northeast 277 319 4,700 -750 Descending FlightAware ADS-B

Login

Don't have an account? Register now (free) for customized features, flight alerts, and more!